sensor_id;sensor_type;location;lat;lon;timestamp;P1;durP1;ratioP1;P2;durP2;ratioP2
21675;SDS011;10999;51.332;9.458;2023-08-30T00:01:11;4.18;;;1.90;;
21675;SDS011;10999;51.332;9.458;2023-08-30T00:03:38;4.55;;;1.77;;
21675;SDS011;10999;51.332;9.458;2023-08-30T00:06:05;3.25;;;1.70;;
21675;SDS011;10999;51.332;9.458;2023-08-30T00:08:32;6.13;;;1.80;;
21675;SDS011;10999;51.332;9.458;2023-08-30T00:10:59;6.78;;;2.05;;
21675;SDS011;10999;51.332;9.458;2023-08-30T00:13:31;5.53;;;2.00;;
21675;SDS011;10999;51.332;9.458;2023-08-30T00:15:59;6.68;;;2.08;;
21675;SDS011;10999;51.332;9.458;2023-08-30T00:18:26;7.05;;;2.78;;
21675;SDS011;10999;51.332;9.458;2023-08-30T00:20:53;8.80;;;2.40;;
21675;SDS011;10999;51.332;9.458;2023-08-30T00:23:19;5.85;;;2.20;;
21675;SDS011;10999;51.332;9.458;2023-08-30T00:25:47;4.82;;;1.83;;
21675;SDS011;10999;51.332;9.458;2023-08-30T00:28:14;4.85;;;2.00;;
21675;SDS011;10999;51.332;9.458;2023-08-30T00:30:41;5.85;;;1.70;;
21675;SDS011;10999;51.332;9.458;2023-08-30T00:33:08;6.18;;;1.67;;
21675;SDS011;10999;51.332;9.458;2023-08-30T00:35:35;4.97;;;1.90;;
21675;SDS011;10999;51.332;9.458;2023-08-30T00:38:02;4.75;;;1.77;;
21675;SDS011;10999;51.332;9.458;2023-08-30T00:40:29;4.93;;;1.88;;
21675;SDS011;10999;51.332;9.458;2023-08-30T00:43:03;5.32;;;1.70;;
21675;SDS011;10999;51.332;9.458;2023-08-30T00:45:30;3.80;;;1.48;;
21675;SDS011;10999;51.332;9.458;2023-08-30T00:47:56;4.13;;;1.67;;
21675;SDS011;10999;51.332;9.458;2023-08-30T00:50:23;4.07;;;1.55;;
21675;SDS011;10999;51.332;9.458;2023-08-30T00:52:50;4.72;;;1.20;;
21675;SDS011;10999;51.332;9.458;2023-08-30T00:55:17;3.20;;;1.50;;
21675;SDS011;10999;51.332;9.458;2023-08-30T00:57:44;4.32;;;1.45;;
21675;SDS011;10999;51.332;9.458;2023-08-30T01:00:13;4.20;;;1.42;;
21675;SDS011;10999;51.332;9.458;2023-08-30T01:02:40;3.78;;;1.40;;
21675;SDS011;10999;51.332;9.458;2023-08-30T01:05:07;3.25;;;1.42;;
21675;SDS011;10999;51.332;9.458;2023-08-30T01:07:35;3.58;;;1.48;;
21675;SDS011;10999;51.332;9.458;2023-08-30T01:10:01;3.88;;;1.80;;
21675;SDS011;10999;51.332;9.458;2023-08-30T01:12:32;3.28;;;1.40;;
21675;SDS011;10999;51.332;9.458;2023-08-30T01:15:10;4.18;;;1.48;;
21675;SDS011;10999;51.332;9.458;2023-08-30T01:17:39;5.43;;;1.50;;
21675;SDS011;10999;51.332;9.458;2023-08-30T01:20:09;3.60;;;1.38;;
21675;SDS011;10999;51.332;9.458;2023-08-30T01:25:31;2.45;;;1.10;;
21675;SDS011;10999;51.332;9.458;2023-08-30T01:28:04;4.50;;;1.50;;
21675;SDS011;10999;51.332;9.458;2023-08-30T01:30:34;3.70;;;1.35;;
21675;SDS011;10999;51.332;9.458;2023-08-30T01:33:03;4.35;;;1.67;;
21675;SDS011;10999;51.332;9.458;2023-08-30T01:35:32;4.15;;;1.35;;
21675;SDS011;10999;51.332;9.458;2023-08-30T01:38:02;5.80;;;1.50;;
21675;SDS011;10999;51.332;9.458;2023-08-30T01:40:32;4.57;;;1.48;;
21675;SDS011;10999;51.332;9.458;2023-08-30T01:43:03;2.95;;;1.20;;
21675;SDS011;10999;51.332;9.458;2023-08-30T01:45:32;3.17;;;1.35;;
21675;SDS011;10999;51.332;9.458;2023-08-30T01:48:01;4.13;;;1.50;;
21675;SDS011;10999;51.332;9.458;2023-08-30T01:50:29;4.20;;;1.50;;
21675;SDS011;10999;51.332;9.458;2023-08-30T01:52:57;3.50;;;1.35;;
21675;SDS011;10999;51.332;9.458;2023-08-30T01:55:25;3.80;;;1.48;;
21675;SDS011;10999;51.332;9.458;2023-08-30T01:57:54;2.88;;;1.40;;
21675;SDS011;10999;51.332;9.458;2023-08-30T02:00:21;2.83;;;1.20;;
21675;SDS011;10999;51.332;9.458;2023-08-30T02:02:48;2.45;;;1.20;;
21675;SDS011;10999;51.332;9.458;2023-08-30T02:05:14;3.92;;;1.30;;
21675;SDS011;10999;51.332;9.458;2023-08-30T02:07:58;5.18;;;1.92;;
21675;SDS011;10999;51.332;9.458;2023-08-30T02:10:45;4.25;;;1.75;;
21675;SDS011;10999;51.332;9.458;2023-08-30T02:13:20;4.93;;;1.70;;
21675;SDS011;10999;51.332;9.458;2023-08-30T02:15:51;3.85;;;1.48;;
21675;SDS011;10999;51.332;9.458;2023-08-30T02:18:21;3.42;;;1.50;;
21675;SDS011;10999;51.332;9.458;2023-08-30T02:20:48;2.78;;;1.30;;
21675;SDS011;10999;51.332;9.458;2023-08-30T02:23:14;3.20;;;1.67;;
21675;SDS011;10999;51.332;9.458;2023-08-30T02:25:41;4.55;;;1.52;;
21675;SDS011;10999;51.332;9.458;2023-08-30T02:28:08;3.47;;;1.30;;
21675;SDS011;10999;51.332;9.458;2023-08-30T02:30:35;5.18;;;1.73;;
21675;SDS011;10999;51.332;9.458;2023-08-30T02:33:02;3.28;;;1.73;;
21675;SDS011;10999;51.332;9.458;2023-08-30T02:35:29;3.60;;;1.45;;
21675;SDS011;10999;51.332;9.458;2023-08-30T02:37:55;4.43;;;1.60;;
21675;SDS011;10999;51.332;9.458;2023-08-30T02:40:22;3.42;;;1.52;;
21675;SDS011;10999;51.332;9.458;2023-08-30T02:42:49;4.32;;;1.40;;
21675;SDS011;10999;51.332;9.458;2023-08-30T02:45:16;3.90;;;1.58;;
21675;SDS011;10999;51.332;9.458;2023-08-30T02:47:44;3.50;;;1.40;;
21675;SDS011;10999;51.332;9.458;2023-08-30T02:50:11;3.88;;;1.42;;
21675;SDS011;10999;51.332;9.458;2023-08-30T02:52:37;3.42;;;1.40;;
21675;SDS011;10999;51.332;9.458;2023-08-30T02:55:04;3.38;;;1.70;;
21675;SDS011;10999;51.332;9.458;2023-08-30T02:57:31;4.13;;;1.55;;
21675;SDS011;10999;51.332;9.458;2023-08-30T02:59:58;4.07;;;1.58;;
21675;SDS011;10999;51.332;9.458;2023-08-30T03:02:25;5.25;;;1.95;;
21675;SDS011;10999;51.332;9.458;2023-08-30T03:04:52;4.25;;;1.40;;
21675;SDS011;10999;51.332;9.458;2023-08-30T03:07:19;3.67;;;1.63;;
21675;SDS011;10999;51.332;9.458;2023-08-30T03:09:45;3.97;;;1.42;;
21675;SDS011;10999;51.332;9.458;2023-08-30T03:12:12;4.18;;;1.50;;
21675;SDS011;10999;51.332;9.458;2023-08-30T03:14:39;6.38;;;1.80;;
21675;SDS011;10999;51.332;9.458;2023-08-30T03:17:05;4.45;;;2.00;;
21675;SDS011;10999;51.332;9.458;2023-08-30T03:19:32;5.03;;;2.03;;
21675;SDS011;10999;51.332;9.458;2023-08-30T03:21:59;5.32;;;1.88;;
21675;SDS011;10999;51.332;9.458;2023-08-30T03:24:26;4.80;;;1.88;;
21675;SDS011;10999;51.332;9.458;2023-08-30T03:26:53;3.08;;;1.50;;
21675;SDS011;10999;51.332;9.458;2023-08-30T03:29:19;3.15;;;1.40;;
21675;SDS011;10999;51.332;9.458;2023-08-30T03:31:47;4.72;;;1.67;;
21675;SDS011;10999;51.332;9.458;2023-08-30T03:34:14;5.57;;;2.08;;
21675;SDS011;10999;51.332;9.458;2023-08-30T03:36:41;6.75;;;2.45;;
21675;SDS011;10999;51.332;9.458;2023-08-30T03:39:10;5.85;;;2.22;;
21675;SDS011;10999;51.332;9.458;2023-08-30T03:41:38;9.50;;;2.25;;
21675;SDS011;10999;51.332;9.458;2023-08-30T03:44:05;6.38;;;2.20;;
21675;SDS011;10999;51.332;9.458;2023-08-30T03:46:31;5.47;;;2.08;;
21675;SDS011;10999;51.332;9.458;2023-08-30T03:48:58;6.40;;;2.75;;
21675;SDS011;10999;51.332;9.458;2023-08-30T03:51:25;7.07;;;2.92;;
21675;SDS011;10999;51.332;9.458;2023-08-30T03:53:51;6.88;;;2.42;;
21675;SDS011;10999;51.332;9.458;2023-08-30T03:56:18;8.13;;;3.03;;
21675;SDS011;10999;51.332;9.458;2023-08-30T03:58:45;8.77;;;3.08;;
21675;SDS011;10999;51.332;9.458;2023-08-30T04:01:12;13.85;;;5.18;;
21675;SDS011;10999;51.332;9.458;2023-08-30T04:03:39;15.00;;;5.43;;
21675;SDS011;10999;51.332;9.458;2023-08-30T04:06:06;15.82;;;6.43;;
21675;SDS011;10999;51.332;9.458;2023-08-30T04:08:32;13.55;;;5.43;;
21675;SDS011;10999;51.332;9.458;2023-08-30T04:10:59;15.48;;;6.55;;
21675;SDS011;10999;51.332;9.458;2023-08-30T04:13:28;11.77;;;5.93;;
21675;SDS011;10999;51.332;9.458;2023-08-30T04:15:55;17.98;;;7.80;;
21675;SDS011;10999;51.332;9.458;2023-08-30T04:18:24;16.88;;;7.07;;
21675;SDS011;10999;51.332;9.458;2023-08-30T04:20:51;14.32;;;6.25;;
21675;SDS011;10999;51.332;9.458;2023-08-30T04:23:18;14.07;;;4.90;;
21675;SDS011;10999;51.332;9.458;2023-08-30T04:25:44;12.40;;;4.85;;
21675;SDS011;10999;51.332;9.458;2023-08-30T04:28:11;12.15;;;5.22;;
21675;SDS011;10999;51.332;9.458;2023-08-30T04:30:38;10.70;;;4.43;;
21675;SDS011;10999;51.332;9.458;2023-08-30T04:33:05;12.15;;;5.55;;
21675;SDS011;10999;51.332;9.458;2023-08-30T04:35:32;12.38;;;5.18;;
21675;SDS011;10999;51.332;9.458;2023-08-30T04:37:59;11.80;;;5.82;;
21675;SDS011;10999;51.332;9.458;2023-08-30T04:40:27;16.95;;;7.63;;
21675;SDS011;10999;51.332;9.458;2023-08-30T04:42:54;15.55;;;6.53;;
21675;SDS011;10999;51.332;9.458;2023-08-30T04:45:21;17.17;;;7.97;;
21675;SDS011;10999;51.332;9.458;2023-08-30T04:47:48;14.75;;;6.57;;
21675;SDS011;10999;51.332;9.458;2023-08-30T04:50:15;13.52;;;6.93;;
21675;SDS011;10999;51.332;9.458;2023-08-30T04:52:43;14.02;;;6.88;;
21675;SDS011;10999;51.332;9.458;2023-08-30T04:55:09;15.52;;;7.50;;
21675;SDS011;10999;51.332;9.458;2023-08-30T04:57:36;15.18;;;6.30;;
21675;SDS011;10999;51.332;9.458;2023-08-30T05:00:03;16.02;;;7.13;;
21675;SDS011;10999;51.332;9.458;2023-08-30T05:02:31;16.50;;;6.95;;
21675;SDS011;10999;51.332;9.458;2023-08-30T05:04:58;12.38;;;6.35;;
21675;SDS011;10999;51.332;9.458;2023-08-30T05:07:25;13.55;;;6.13;;
21675;SDS011;10999;51.332;9.458;2023-08-30T05:09:51;15.20;;;6.72;;
21675;SDS011;10999;51.332;9.458;2023-08-30T05:12:18;13.55;;;6.95;;
21675;SDS011;10999;51.332;9.458;2023-08-30T05:14:45;14.45;;;6.53;;
21675;SDS011;10999;51.332;9.458;2023-08-30T05:17:11;15.82;;;7.07;;
21675;SDS011;10999;51.332;9.458;2023-08-30T05:19:38;14.50;;;7.10;;
21675;SDS011;10999;51.332;9.458;2023-08-30T05:22:05;12.40;;;6.38;;
21675;SDS011;10999;51.332;9.458;2023-08-30T05:24:31;14.43;;;6.80;;
21675;SDS011;10999;51.332;9.458;2023-08-30T05:26:59;12.10;;;6.05;;
21675;SDS011;10999;51.332;9.458;2023-08-30T05:29:26;12.95;;;6.30;;
21675;SDS011;10999;51.332;9.458;2023-08-30T05:31:53;15.80;;;6.85;;
21675;SDS011;10999;51.332;9.458;2023-08-30T05:34:19;13.35;;;6.40;;
21675;SDS011;10999;51.332;9.458;2023-08-30T05:36:46;12.00;;;5.93;;
21675;SDS011;10999;51.332;9.458;2023-08-30T05:39:13;14.02;;;7.32;;
21675;SDS011;10999;51.332;9.458;2023-08-30T05:41:40;15.55;;;7.78;;
21675;SDS011;10999;51.332;9.458;2023-08-30T05:44:07;13.07;;;7.00;;
21675;SDS011;10999;51.332;9.458;2023-08-30T05:46:34;15.20;;;7.38;;
21675;SDS011;10999;51.332;9.458;2023-08-30T05:49:01;14.73;;;7.25;;
21675;SDS011;10999;51.332;9.458;2023-08-30T05:51:29;12.15;;;6.68;;
21675;SDS011;10999;51.332;9.458;2023-08-30T05:53:56;15.13;;;7.20;;
21675;SDS011;10999;51.332;9.458;2023-08-30T05:56:22;13.05;;;6.18;;
21675;SDS011;10999;51.332;9.458;2023-08-30T05:58:49;11.65;;;6.18;;
21675;SDS011;10999;51.332;9.458;2023-08-30T06:01:17;11.82;;;6.60;;
21675;SDS011;10999;51.332;9.458;2023-08-30T06:03:45;13.68;;;6.63;;
21675;SDS011;10999;51.332;9.458;2023-08-30T06:06:13;16.63;;;6.38;;
21675;SDS011;10999;51.332;9.458;2023-08-30T06:08:40;12.50;;;6.45;;
21675;SDS011;10999;51.332;9.458;2023-08-30T06:11:06;14.55;;;7.50;;
21675;SDS011;10999;51.332;9.458;2023-08-30T06:13:33;13.98;;;6.80;;
21675;SDS011;10999;51.332;9.458;2023-08-30T06:16:00;16.33;;;7.38;;
21675;SDS011;10999;51.332;9.458;2023-08-30T06:18:29;12.48;;;6.88;;
21675;SDS011;10999;51.332;9.458;2023-08-30T06:20:56;15.85;;;6.63;;
21675;SDS011;10999;51.332;9.458;2023-08-30T06:23:23;11.52;;;6.15;;
21675;SDS011;10999;51.332;9.458;2023-08-30T06:25:53;11.93;;;6.15;;
21675;SDS011;10999;51.332;9.458;2023-08-30T06:28:23;11.32;;;6.05;;
21675;SDS011;10999;51.332;9.458;2023-08-30T06:30:50;12.77;;;6.97;;
21675;SDS011;10999;51.332;9.458;2023-08-30T06:33:17;13.10;;;6.18;;
21675;SDS011;10999;51.332;9.458;2023-08-30T06:35:44;14.30;;;6.85;;
21675;SDS011;10999;51.332;9.458;2023-08-30T06:38:13;10.13;;;6.00;;
21675;SDS011;10999;51.332;9.458;2023-08-30T06:40:43;10.90;;;5.90;;
21675;SDS011;10999;51.332;9.458;2023-08-30T06:43:11;11.48;;;6.18;;
21675;SDS011;10999;51.332;9.458;2023-08-30T06:45:38;12.52;;;6.15;;
21675;SDS011;10999;51.332;9.458;2023-08-30T06:48:06;11.50;;;5.93;;
21675;SDS011;10999;51.332;9.458;2023-08-30T06:50:34;11.73;;;6.15;;
21675;SDS011;10999;51.332;9.458;2023-08-30T06:53:02;12.13;;;5.68;;
21675;SDS011;10999;51.332;9.458;2023-08-30T06:55:29;12.50;;;6.10;;
21675;SDS011;10999;51.332;9.458;2023-08-30T06:57:56;15.35;;;7.38;;
21675;SDS011;10999;51.332;9.458;2023-08-30T07:00:22;12.52;;;6.95;;
21675;SDS011;10999;51.332;9.458;2023-08-30T07:02:49;12.70;;;6.90;;
21675;SDS011;10999;51.332;9.458;2023-08-30T07:05:16;12.50;;;6.75;;
21675;SDS011;10999;51.332;9.458;2023-08-30T07:07:43;13.50;;;7.10;;
21675;SDS011;10999;51.332;9.458;2023-08-30T07:10:09;13.30;;;7.32;;
21675;SDS011;10999;51.332;9.458;2023-08-30T07:12:36;13.25;;;6.70;;
21675;SDS011;10999;51.332;9.458;2023-08-30T07:15:03;12.85;;;7.28;;
21675;SDS011;10999;51.332;9.458;2023-08-30T07:17:30;15.88;;;7.25;;
21675;SDS011;10999;51.332;9.458;2023-08-30T07:20:16;13.27;;;6.70;;
21675;SDS011;10999;51.332;9.458;2023-08-30T07:22:43;14.75;;;7.28;;
21675;SDS011;10999;51.332;9.458;2023-08-30T07:25:10;15.10;;;7.97;;
21675;SDS011;10999;51.332;9.458;2023-08-30T07:27:38;14.63;;;7.15;;
21675;SDS011;10999;51.332;9.458;2023-08-30T07:30:05;15.30;;;7.63;;
21675;SDS011;10999;51.332;9.458;2023-08-30T07:32:32;14.70;;;7.93;;
21675;SDS011;10999;51.332;9.458;2023-08-30T07:34:59;14.25;;;6.85;;
21675;SDS011;10999;51.332;9.458;2023-08-30T07:37:25;12.68;;;7.43;;
21675;SDS011;10999;51.332;9.458;2023-08-30T07:39:52;15.43;;;7.55;;
21675;SDS011;10999;51.332;9.458;2023-08-30T07:42:19;14.15;;;7.53;;
21675;SDS011;10999;51.332;9.458;2023-08-30T07:44:46;13.98;;;7.05;;
21675;SDS011;10999;51.332;9.458;2023-08-30T07:47:13;14.63;;;7.65;;
21675;SDS011;10999;51.332;9.458;2023-08-30T07:49:40;16.63;;;7.57;;
21675;SDS011;10999;51.332;9.458;2023-08-30T07:52:07;15.30;;;7.55;;
21675;SDS011;10999;51.332;9.458;2023-08-30T07:54:37;15.60;;;7.85;;
21675;SDS011;10999;51.332;9.458;2023-08-30T07:57:05;14.43;;;7.43;;
21675;SDS011;10999;51.332;9.458;2023-08-30T07:59:33;15.07;;;7.93;;
21675;SDS011;10999;51.332;9.458;2023-08-30T08:02:01;18.05;;;8.85;;
21675;SDS011;10999;51.332;9.458;2023-08-30T08:04:33;15.45;;;7.93;;
21675;SDS011;10999;51.332;9.458;2023-08-30T08:07:01;13.30;;;7.22;;
21675;SDS011;10999;51.332;9.458;2023-08-30T08:09:30;16.30;;;8.85;;
21675;SDS011;10999;51.332;9.458;2023-08-30T08:11:57;17.88;;;7.82;;
21675;SDS011;10999;51.332;9.458;2023-08-30T08:14:24;15.98;;;8.00;;
21675;SDS011;10999;51.332;9.458;2023-08-30T08:16:51;16.42;;;8.32;;
21675;SDS011;10999;51.332;9.458;2023-08-30T08:19:18;17.60;;;8.55;;
21675;SDS011;10999;51.332;9.458;2023-08-30T08:21:49;14.95;;;7.45;;
21675;SDS011;10999;51.332;9.458;2023-08-30T08:24:16;16.40;;;7.78;;
21675;SDS011;10999;51.332;9.458;2023-08-30T08:26:43;18.58;;;8.75;;
21675;SDS011;10999;51.332;9.458;2023-08-30T08:29:09;15.45;;;7.75;;
21675;SDS011;10999;51.332;9.458;2023-08-30T08:31:36;15.45;;;7.63;;
21675;SDS011;10999;51.332;9.458;2023-08-30T08:34:07;15.10;;;8.15;;
21675;SDS011;10999;51.332;9.458;2023-08-30T08:36:38;16.80;;;8.15;;
21675;SDS011;10999;51.332;9.458;2023-08-30T08:39:06;15.30;;;7.18;;
21675;SDS011;10999;51.332;9.458;2023-08-30T08:41:35;13.80;;;7.43;;
21675;SDS011;10999;51.332;9.458;2023-08-30T08:44:05;14.98;;;8.55;;
21675;SDS011;10999;51.332;9.458;2023-08-30T08:46:37;15.25;;;7.55;;
21675;SDS011;10999;51.332;9.458;2023-08-30T08:49:08;13.82;;;7.40;;
21675;SDS011;10999;51.332;9.458;2023-08-30T08:51:37;16.80;;;8.02;;
21675;SDS011;10999;51.332;9.458;2023-08-30T08:54:04;15.45;;;8.23;;
21675;SDS011;10999;51.332;9.458;2023-08-30T08:56:31;16.73;;;7.72;;
21675;SDS011;10999;51.332;9.458;2023-08-30T08:59:02;13.40;;;7.90;;
21675;SDS011;10999;51.332;9.458;2023-08-30T09:01:29;14.60;;;7.63;;
21675;SDS011;10999;51.332;9.458;2023-08-30T09:04:04;16.50;;;7.80;;
21675;SDS011;10999;51.332;9.458;2023-08-30T09:06:33;14.32;;;7.78;;
21675;SDS011;10999;51.332;9.458;2023-08-30T09:09:01;14.75;;;7.45;;
21675;SDS011;10999;51.332;9.458;2023-08-30T09:11:31;13.13;;;7.53;;
21675;SDS011;10999;51.332;9.458;2023-08-30T09:14:16;12.38;;;7.53;;
21675;SDS011;10999;51.332;9.458;2023-08-30T09:16:53;14.25;;;7.55;;
21675;SDS011;10999;51.332;9.458;2023-08-30T09:19:20;15.35;;;8.35;;
21675;SDS011;10999;51.332;9.458;2023-08-30T09:21:54;15.45;;;7.78;;
21675;SDS011;10999;51.332;9.458;2023-08-30T09:24:22;13.52;;;7.65;;
21675;SDS011;10999;51.332;9.458;2023-08-30T09:26:51;15.55;;;7.82;;
21675;SDS011;10999;51.332;9.458;2023-08-30T09:29:19;18.48;;;8.95;;
21675;SDS011;10999;51.332;9.458;2023-08-30T09:31:50;17.10;;;8.73;;
21675;SDS011;10999;51.332;9.458;2023-08-30T09:34:21;14.30;;;7.78;;
21675;SDS011;10999;51.332;9.458;2023-08-30T09:36:50;14.88;;;8.48;;
21675;SDS011;10999;51.332;9.458;2023-08-30T09:39:17;16.55;;;8.75;;
21675;SDS011;10999;51.332;9.458;2023-08-30T09:41:45;17.08;;;8.88;;
21675;SDS011;10999;51.332;9.458;2023-08-30T09:44:14;15.50;;;8.27;;
21675;SDS011;10999;51.332;9.458;2023-08-30T09:46:51;13.48;;;7.45;;
21675;SDS011;10999;51.332;9.458;2023-08-30T09:49:23;15.40;;;8.85;;
21675;SDS011;10999;51.332;9.458;2023-08-30T09:51:52;16.83;;;8.95;;
21675;SDS011;10999;51.332;9.458;2023-08-30T09:54:26;15.90;;;7.75;;
21675;SDS011;10999;51.332;9.458;2023-08-30T09:56:57;14.75;;;8.32;;
21675;SDS011;10999;51.332;9.458;2023-08-30T09:59:26;17.27;;;9.57;;
21675;SDS011;10999;51.332;9.458;2023-08-30T10:01:53;16.90;;;8.65;;
21675;SDS011;10999;51.332;9.458;2023-08-30T10:04:22;16.67;;;8.57;;
21675;SDS011;10999;51.332;9.458;2023-08-30T10:06:50;16.92;;;8.63;;
21675;SDS011;10999;51.332;9.458;2023-08-30T10:09:19;17.15;;;9.05;;
21675;SDS011;10999;51.332;9.458;2023-08-30T10:11:46;15.75;;;8.02;;
21675;SDS011;10999;51.332;9.458;2023-08-30T10:14:13;16.08;;;8.07;;
21675;SDS011;10999;51.332;9.458;2023-08-30T10:19:11;14.00;;;7.20;;
21675;SDS011;10999;51.332;9.458;2023-08-30T10:21:47;13.55;;;7.82;;
21675;SDS011;10999;51.332;9.458;2023-08-30T10:24:14;14.07;;;7.43;;
21675;SDS011;10999;51.332;9.458;2023-08-30T10:26:59;15.18;;;7.50;;
21675;SDS011;10999;51.332;9.458;2023-08-30T10:29:29;14.98;;;7.20;;
21675;SDS011;10999;51.332;9.458;2023-08-30T10:32:03;13.13;;;6.70;;
21675;SDS011;10999;51.332;9.458;2023-08-30T10:34:34;12.40;;;7.15;;
21675;SDS011;10999;51.332;9.458;2023-08-30T10:37:03;14.05;;;7.78;;
21675;SDS011;10999;51.332;9.458;2023-08-30T10:39:33;16.48;;;8.15;;
21675;SDS011;10999;51.332;9.458;2023-08-30T10:42:13;15.23;;;7.90;;
21675;SDS011;10999;51.332;9.458;2023-08-30T10:44:51;13.45;;;7.53;;
21675;SDS011;10999;51.332;9.458;2023-08-30T10:47:39;12.50;;;7.30;;
21675;SDS011;10999;51.332;9.458;2023-08-30T10:50:10;12.63;;;7.32;;
21675;SDS011;10999;51.332;9.458;2023-08-30T10:52:38;13.95;;;7.10;;
21675;SDS011;10999;51.332;9.458;2023-08-30T10:57:36;9.65;;;5.40;;
21675;SDS011;10999;51.332;9.458;2023-08-30T11:02:49;10.95;;;6.88;;
21675;SDS011;10999;51.332;9.458;2023-08-30T11:05:17;11.40;;;6.63;;
21675;SDS011;10999;51.332;9.458;2023-08-30T11:07:47;11.75;;;6.30;;
21675;SDS011;10999;51.332;9.458;2023-08-30T11:10:15;13.00;;;6.68;;
21675;SDS011;10999;51.332;9.458;2023-08-30T11:12:43;12.82;;;5.65;;
21675;SDS011;10999;51.332;9.458;2023-08-30T11:15:12;10.20;;;5.90;;
21675;SDS011;10999;51.332;9.458;2023-08-30T11:17:41;12.25;;;5.88;;
21675;SDS011;10999;51.332;9.458;2023-08-30T11:20:12;9.77;;;5.55;;
21675;SDS011;10999;51.332;9.458;2023-08-30T11:22:45;10.32;;;5.80;;
21675;SDS011;10999;51.332;9.458;2023-08-30T11:27:40;10.48;;;5.90;;
21675;SDS011;10999;51.332;9.458;2023-08-30T11:30:08;10.18;;;5.90;;
21675;SDS011;10999;51.332;9.458;2023-08-30T11:32:40;9.35;;;5.18;;
21675;SDS011;10999;51.332;9.458;2023-08-30T11:35:09;9.50;;;4.90;;
21675;SDS011;10999;51.332;9.458;2023-08-30T11:37:36;8.70;;;4.90;;
21675;SDS011;10999;51.332;9.458;2023-08-30T11:40:03;9.48;;;5.22;;
21675;SDS011;10999;51.332;9.458;2023-08-30T11:42:32;9.57;;;4.53;;
21675;SDS011;10999;51.332;9.458;2023-08-30T11:44:59;7.80;;;3.60;;
21675;SDS011;10999;51.332;9.458;2023-08-30T11:47:26;7.75;;;3.80;;
21675;SDS011;10999;51.332;9.458;2023-08-30T11:49:54;14.30;;;3.75;;
21675;SDS011;10999;51.332;9.458;2023-08-30T11:52:23;7.45;;;3.83;;
21675;SDS011;10999;51.332;9.458;2023-08-30T11:54:51;7.55;;;3.42;;
21675;SDS011;10999;51.332;9.458;2023-08-30T11:57:18;8.45;;;3.78;;
21675;SDS011;10999;51.332;9.458;2023-08-30T11:59:45;8.68;;;3.78;;
21675;SDS011;10999;51.332;9.458;2023-08-30T12:02:14;9.38;;;3.92;;
21675;SDS011;10999;51.332;9.458;2023-08-30T12:04:42;5.80;;;2.60;;
21675;SDS011;10999;51.332;9.458;2023-08-30T12:07:23;8.93;;;3.58;;
21675;SDS011;10999;51.332;9.458;2023-08-30T12:10:06;7.32;;;2.80;;
21675;SDS011;10999;51.332;9.458;2023-08-30T12:12:34;6.97;;;3.00;;
21675;SDS011;10999;51.332;9.458;2023-08-30T12:15:13;6.93;;;2.90;;
21675;SDS011;10999;51.332;9.458;2023-08-30T12:17:41;8.75;;;3.10;;
21675;SDS011;10999;51.332;9.458;2023-08-30T12:20:14;5.80;;;2.53;;
21675;SDS011;10999;51.332;9.458;2023-08-30T12:22:47;6.28;;;2.55;;
21675;SDS011;10999;51.332;9.458;2023-08-30T12:25:15;7.78;;;2.78;;
21675;SDS011;10999;51.332;9.458;2023-08-30T12:27:46;6.95;;;2.60;;
21675;SDS011;10999;51.332;9.458;2023-08-30T12:30:16;6.13;;;2.80;;
21675;SDS011;10999;51.332;9.458;2023-08-30T12:32:44;7.22;;;2.33;;
21675;SDS011;10999;51.332;9.458;2023-08-30T12:35:11;6.55;;;2.72;;
21675;SDS011;10999;51.332;9.458;2023-08-30T12:37:38;5.90;;;2.85;;
21675;SDS011;10999;51.332;9.458;2023-08-30T12:40:05;7.55;;;2.50;;
21675;SDS011;10999;51.332;9.458;2023-08-30T12:42:34;7.35;;;2.42;;
21675;SDS011;10999;51.332;9.458;2023-08-30T12:45:01;7.07;;;2.95;;
21675;SDS011;10999;51.332;9.458;2023-08-30T12:47:29;6.57;;;2.75;;
21675;SDS011;10999;51.332;9.458;2023-08-30T12:49:56;7.57;;;2.83;;
21675;SDS011;10999;51.332;9.458;2023-08-30T12:52:23;7.43;;;2.70;;
21675;SDS011;10999;51.332;9.458;2023-08-30T12:54:50;6.30;;;2.63;;
21675;SDS011;10999;51.332;9.458;2023-08-30T12:57:18;7.32;;;2.78;;
21675;SDS011;10999;51.332;9.458;2023-08-30T12:59:45;6.60;;;2.80;;
21675;SDS011;10999;51.332;9.458;2023-08-30T13:02:11;6.78;;;2.70;;
21675;SDS011;10999;51.332;9.458;2023-08-30T13:04:38;7.78;;;3.10;;
21675;SDS011;10999;51.332;9.458;2023-08-30T13:07:05;7.43;;;2.75;;
21675;SDS011;10999;51.332;9.458;2023-08-30T13:09:32;8.32;;;3.15;;
21675;SDS011;10999;51.332;9.458;2023-08-30T13:11:58;8.60;;;3.03;;
21675;SDS011;10999;51.332;9.458;2023-08-30T13:14:25;7.07;;;3.10;;
21675;SDS011;10999;51.332;9.458;2023-08-30T13:16:52;5.53;;;2.50;;
21675;SDS011;10999;51.332;9.458;2023-08-30T13:19:19;9.50;;;3.63;;
21675;SDS011;10999;51.332;9.458;2023-08-30T13:21:45;9.93;;;3.17;;
21675;SDS011;10999;51.332;9.458;2023-08-30T13:24:12;7.88;;;3.08;;
21675;SDS011;10999;51.332;9.458;2023-08-30T13:26:39;6.50;;;2.40;;
21675;SDS011;10999;51.332;9.458;2023-08-30T13:29:05;6.20;;;2.60;;
21675;SDS011;10999;51.332;9.458;2023-08-30T13:31:33;8.57;;;3.45;;
21675;SDS011;10999;51.332;9.458;2023-08-30T13:34:00;5.80;;;2.70;;
21675;SDS011;10999;51.332;9.458;2023-08-30T13:36:27;5.05;;;2.45;;
21675;SDS011;10999;51.332;9.458;2023-08-30T13:38:57;6.93;;;2.70;;
21675;SDS011;10999;51.332;9.458;2023-08-30T13:41:23;6.28;;;2.70;;
21675;SDS011;10999;51.332;9.458;2023-08-30T13:43:50;5.45;;;2.60;;
21675;SDS011;10999;51.332;9.458;2023-08-30T13:46:17;7.53;;;2.78;;
21675;SDS011;10999;51.332;9.458;2023-08-30T13:48:45;8.65;;;2.65;;
21675;SDS011;10999;51.332;9.458;2023-08-30T13:51:11;6.28;;;2.83;;
21675;SDS011;10999;51.332;9.458;2023-08-30T13:53:38;6.70;;;2.88;;
21675;SDS011;10999;51.332;9.458;2023-08-30T13:56:05;8.45;;;3.08;;
21675;SDS011;10999;51.332;9.458;2023-08-30T13:58:31;8.27;;;3.25;;
21675;SDS011;10999;51.332;9.458;2023-08-30T14:00:58;7.53;;;3.47;;
21675;SDS011;10999;51.332;9.458;2023-08-30T14:03:25;7.60;;;3.35;;
21675;SDS011;10999;51.332;9.458;2023-08-30T14:05:52;7.93;;;3.25;;
21675;SDS011;10999;51.332;9.458;2023-08-30T14:08:19;7.85;;;3.55;;
21675;SDS011;10999;51.332;9.458;2023-08-30T14:10:45;7.40;;;3.00;;
21675;SDS011;10999;51.332;9.458;2023-08-30T14:13:12;8.93;;;3.42;;
21675;SDS011;10999;51.332;9.458;2023-08-30T14:15:40;5.63;;;2.85;;
21675;SDS011;10999;51.332;9.458;2023-08-30T14:18:07;6.68;;;2.95;;
21675;SDS011;10999;51.332;9.458;2023-08-30T14:20:34;6.95;;;2.72;;
21675;SDS011;10999;51.332;9.458;2023-08-30T14:23:01;7.40;;;3.08;;
21675;SDS011;10999;51.332;9.458;2023-08-30T14:25:28;7.90;;;3.60;;
21675;SDS011;10999;51.332;9.458;2023-08-30T14:27:55;9.05;;;3.30;;
21675;SDS011;10999;51.332;9.458;2023-08-30T14:30:22;7.57;;;3.10;;
21675;SDS011;10999;51.332;9.458;2023-08-30T14:32:49;6.80;;;3.00;;
21675;SDS011;10999;51.332;9.458;2023-08-30T14:35:17;6.93;;;2.70;;
21675;SDS011;10999;51.332;9.458;2023-08-30T14:37:47;7.10;;;3.53;;
21675;SDS011;10999;51.332;9.458;2023-08-30T14:40:13;9.07;;;3.50;;
21675;SDS011;10999;51.332;9.458;2023-08-30T14:42:40;8.50;;;3.20;;
21675;SDS011;10999;51.332;9.458;2023-08-30T14:45:07;7.70;;;3.63;;
21675;SDS011;10999;51.332;9.458;2023-08-30T14:47:34;10.98;;;3.72;;
21675;SDS011;10999;51.332;9.458;2023-08-30T14:50:01;6.93;;;3.15;;
21675;SDS011;10999;51.332;9.458;2023-08-30T14:52:29;6.93;;;2.60;;
21675;SDS011;10999;51.332;9.458;2023-08-30T14:54:55;6.07;;;2.70;;
21675;SDS011;10999;51.332;9.458;2023-08-30T14:57:22;6.40;;;3.00;;
21675;SDS011;10999;51.332;9.458;2023-08-30T14:59:50;9.38;;;2.80;;